Time;durP1;ratioP1;P1;durP2;ratioP2;P2;SDS_P1;SDS_P2;PMS_P1;PMS_P2;Temp;Humidity;BMP_temperature;BMP_pressure;BME280_temperature;BME280_humidity;BME280_pressure;Samples;Min_cycle;Max_cycle;Signal;HPM_P1;HPM_P2
2021/12/02 00:01:08;;;;;;;;;;;5.70;87.10;;;;;;5014453;28;19916;-83
2021/12/02 00:03:35;;;;;;;;;;;5.70;87.20;;;;;;5016563;28;20384;-83
2021/12/02 00:06:00;;;;;;;;;;;5.70;87.00;;;;;;5016839;28;19995;-84
2021/12/02 00:08:26;;;;;;;;;;;5.70;87.00;;;;;;5037203;28;19953;-84
2021/12/02 00:10:51;;;;;;;;;;;5.70;86.80;;;;;;5053474;28;19984;-84
2021/12/02 00:13:22;;;;;;;;;;;5.80;86.70;;;;;;5049698;28;19959;-84
2021/12/02 00:23:42;;;;;;;;;;;5.80;86.00;;;;;;5046313;28;19917;-83
2021/12/02 00:26:15;;;;;;;;;;;5.70;86.40;;;;;;5052768;28;19967;-84
2021/12/02 00:28:40;;;;;;;;;;;5.80;86.70;;;;;;5038428;28;19913;-83
2021/12/02 00:31:10;;;;;;;;;;;5.70;86.60;;;;;;5062397;28;19921;-84
2021/12/02 00:33:39;;;;;;;;;;;5.80;87.10;;;;;;5024332;28;19913;-83
2021/12/02 00:36:04;;;;;;;;;;;5.80;86.60;;;;;;5021451;28;19917;-85
2021/12/02 00:38:30;;;;;;;;;;;5.70;86.40;;;;;;5037948;28;19996;-85
2021/12/02 00:40:55;;;;;;;;;;;5.60;85.90;;;;;;5036985;28;20258;-84
2021/12/02 00:43:21;;;;;;;;;;;5.70;86.40;;;;;;5019858;28;19913;-84
2021/12/02 00:45:46;;;;;;;;;;;5.70;85.50;;;;;;5047780;28;20338;-83
2021/12/02 00:48:13;;;;;;;;;;;5.80;86.10;;;;;;5036693;28;20329;-86
2021/12/02 00:50:40;;;;;;;;;;;5.70;85.90;;;;;;5017060;28;19920;-85
2021/12/02 00:53:06;;;;;;;;;;;5.70;86.30;;;;;;5020469;28;19970;-84
2021/12/02 00:55:32;;;;;;;;;;;5.80;86.00;;;;;;5018066;28;19920;-85
2021/12/02 00:57:58;;;;;;;;;;;5.70;86.30;;;;;;5055086;28;20288;-84
2021/12/02 01:00:23;;;;;;;;;;;5.70;86.00;;;;;;5029692;28;19919;-85
2021/12/02 01:02:49;;;;;;;;;;;5.70;86.50;;;;;;5019233;28;19976;-84
2021/12/02 01:05:14;;;;;;;;;;;5.70;85.80;;;;;;5030576;28;19988;-86
2021/12/02 01:07:41;;;;;;;;;;;5.70;85.50;;;;;;5020422;28;19909;-86
2021/12/02 01:10:08;;;;;;;;;;;5.70;85.50;;;;;;5039416;28;20019;-85
2021/12/02 01:12:34;;;;;;;;;;;5.70;85.30;;;;;;5026147;28;19923;-85
2021/12/02 01:15:00;;;;;;;;;;;5.80;85.80;;;;;;5028602;28;19913;-86
2021/12/02 01:17:25;;;;;;;;;;;5.70;86.10;;;;;;5052783;28;19925;-85
2021/12/02 01:19:51;;;;;;;;;;;5.70;85.60;;;;;;5036687;28;19956;-85
2021/12/02 01:22:17;;;;;;;;;;;5.80;85.50;;;;;;5037779;28;20312;-84
2021/12/02 01:24:42;;;;;;;;;;;5.80;85.80;;;;;;5020201;28;19913;-83
2021/12/02 01:27:09;;;;;;;;;;;5.80;85.60;;;;;;5020998;28;19920;-85
2021/12/02 01:29:34;;;;;;;;;;;5.80;85.80;;;;;;5023961;28;19913;-83
2021/12/02 01:32:05;;;;;;;;;;;5.90;85.60;;;;;;5052571;28;19977;-84
2021/12/02 01:34:31;;;;;;;;;;;6.00;85.60;;;;;;5016415;28;20317;-85
2021/12/02 01:36:57;;;;;;;;;;;5.90;84.60;;;;;;5023699;28;20504;-85
2021/12/02 01:39:23;;;;;;;;;;;5.90;84.40;;;;;;5051995;28;19917;-84
2021/12/02 01:41:54;;;;;;;;;;;6.00;83.80;;;;;;5020366;28;19913;-85
2021/12/02 01:44:21;;;;;;;;;;;6.00;84.40;;;;;;5020625;28;19912;-84
2021/12/02 01:46:51;;;;;;;;;;;6.10;84.30;;;;;;5020464;28;19918;-85
2021/12/02 01:49:17;;;;;;;;;;;6.10;84.00;;;;;;5021920;28;21519;-85
2021/12/02 01:51:42;;;;;;;;;;;6.10;84.10;;;;;;5051394;28;19960;-85
2021/12/02 01:54:09;;;;;;;;;;;6.10;84.50;;;;;;5036713;28;19917;-86
2021/12/02 01:56:40;;;;;;;;;;;6.10;84.90;;;;;;5021046;28;20285;-85
2021/12/02 01:59:10;;;;;;;;;;;6.10;84.20;;;;;;5020023;28;19909;-85
2021/12/02 02:01:37;;;;;;;;;;;6.10;83.60;;;;;;5028673;28;19913;-84
2021/12/02 02:04:03;;;;;;;;;;;6.10;83.90;;;;;;5022722;28;19983;-85
2021/12/02 02:06:36;;;;;;;;;;;6.20;84.50;;;;;;5040768;28;19908;-85
2021/12/02 02:09:02;;;;;;;;;;;6.20;84.40;;;;;;5020752;28;19915;-85
2021/12/02 02:11:29;;;;;;;;;;;6.20;83.80;;;;;;5057181;28;20395;-85
2021/12/02 02:13:55;;;;;;;;;;;6.20;83.60;;;;;;5021413;28;19976;-83
2021/12/02 02:16:21;;;;;;;;;;;6.10;83.50;;;;;;5021138;28;19921;-85
2021/12/02 02:18:47;;;;;;;;;;;6.20;84.10;;;;;;5053555;28;20400;-85
2021/12/02 02:21:18;;;;;;;;;;;6.10;83.70;;;;;;5035502;28;19966;-85
2021/12/02 02:23:51;;;;;;;;;;;6.10;84.60;;;;;;5052914;28;19920;-85
2021/12/02 02:26:22;;;;;;;;;;;6.10;85.00;;;;;;5053356;28;19908;-83
2021/12/02 02:28:49;;;;;;;;;;;6.10;85.00;;;;;;5035228;28;19937;-86
2021/12/02 02:31:14;;;;;;;;;;;6.00;84.20;;;;;;5046591;28;19949;-86
2021/12/02 02:33:40;;;;;;;;;;;6.10;84.40;;;;;;5056075;28;20289;-86
2021/12/02 02:36:06;;;;;;;;;;;6.10;84.90;;;;;;5044022;28;19944;-86
2021/12/02 02:38:33;;;;;;;;;;;6.10;84.90;;;;;;5056275;28;20354;-86
2021/12/02 02:41:00;;;;;;;;;;;6.10;84.80;;;;;;5059515;28;19944;-85
2021/12/02 02:43:27;;;;;;;;;;;6.10;84.30;;;;;;5023230;28;19971;-84
2021/12/02 02:45:52;;;;;;;;;;;6.20;85.00;;;;;;5019805;28;20384;-85
2021/12/02 02:48:18;;;;;;;;;;;6.20;85.10;;;;;;5018476;28;19936;-85
2021/12/02 02:50:43;;;;;;;;;;;6.30;84.30;;;;;;5025858;28;19940;-85
2021/12/02 02:53:16;;;;;;;;;;;6.30;84.20;;;;;;5052444;28;19909;-84
2021/12/02 02:55:45;;;;;;;;;;;6.30;84.60;;;;;;5019908;28;19913;-85
2021/12/02 02:58:31;;;;;;;;;;;6.20;84.50;;;;;;5018776;28;19916;-84
2021/12/02 03:01:25;;;;;;;;;;;6.20;84.10;;;;;;5046016;28;19913;-86
2021/12/02 03:09:04;;;;;;;;;;;6.30;84.80;;;;;;5037747;28;19917;-87
2021/12/02 03:11:40;;;;;;;;;;;6.30;85.20;;;;;;5026585;28;19956;-86
2021/12/02 03:14:14;;;;;;;;;;;6.20;84.50;;;;;;5019654;28;19913;-86
2021/12/02 03:16:46;;;;;;;;;;;6.10;84.90;;;;;;5021534;28;19917;-85
2021/12/02 03:19:12;;;;;;;;;;;5.90;85.40;;;;;;5047284;28;20297;-87
2021/12/02 03:21:38;;;;;;;;;;;5.90;86.00;;;;;;5019997;28;20020;-86
2021/12/02 03:24:04;;;;;;;;;;;5.80;84.70;;;;;;5019489;28;19921;-86
2021/12/02 03:26:31;;;;;;;;;;;5.70;84.80;;;;;;5019155;28;19913;-87
2021/12/02 03:28:57;;;;;;;;;;;5.60;85.70;;;;;;5019349;28;19913;-87
2021/12/02 03:31:23;;;;;;;;;;;5.60;85.30;;;;;;5019452;28;19921;-86
2021/12/02 03:33:49;;;;;;;;;;;5.60;85.50;;;;;;5013689;28;19936;-86
2021/12/02 03:36:15;;;;;;;;;;;5.60;86.00;;;;;;5028931;28;20321;-86
2021/12/02 03:38:40;;;;;;;;;;;5.60;87.00;;;;;;5043079;28;20367;-86
2021/12/02 03:41:06;;;;;;;;;;;5.50;87.00;;;;;;5020428;28;19944;-87
2021/12/02 03:43:40;;;;;;;;;;;5.60;86.80;;;;;;5030609;28;19912;-87
2021/12/02 03:46:06;;;;;;;;;;;5.50;87.00;;;;;;5039656;28;20001;-88
2021/12/02 03:48:31;;;;;;;;;;;5.60;86.60;;;;;;5049511;28;19967;-87
2021/12/02 03:50:57;;;;;;;;;;;5.60;87.00;;;;;;5023633;28;19913;-87
2021/12/02 03:53:22;;;;;;;;;;;5.60;86.90;;;;;;5047740;28;19963;-87
2021/12/02 03:55:48;;;;;;;;;;;5.60;87.00;;;;;;5055694;28;19914;-88
2021/12/02 03:58:13;;;;;;;;;;;5.50;87.10;;;;;;5036610;28;19992;-87
2021/12/02 04:00:39;;;;;;;;;;;5.60;86.60;;;;;;5053459;28;19927;-87
2021/12/02 04:03:05;;;;;;;;;;;5.50;86.40;;;;;;5032777;28;19924;-88
2021/12/02 04:05:30;;;;;;;;;;;5.50;86.60;;;;;;5039120;28;19909;-86
2021/12/02 04:07:56;;;;;;;;;;;5.40;86.10;;;;;;5049228;28;19909;-86
2021/12/02 04:10:22;;;;;;;;;;;5.40;86.50;;;;;;5035257;28;19913;-86
2021/12/02 04:15:21;;;;;;;;;;;5.40;86.90;;;;;;5041987;28;19920;-86
2021/12/02 04:17:48;;;;;;;;;;;5.50;86.40;;;;;;5034784;28;19921;-84
2021/12/02 04:20:14;;;;;;;;;;;5.50;86.40;;;;;;5016283;28;19963;-85
2021/12/02 04:22:40;;;;;;;;;;;5.40;86.60;;;;;;5044060;28;19922;-83
2021/12/02 04:25:06;;;;;;;;;;;5.40;87.00;;;;;;5022536;28;19916;-84
2021/12/02 04:27:32;;;;;;;;;;;5.40;85.80;;;;;;5014392;28;19959;-83
2021/12/02 04:29:57;;;;;;;;;;;5.30;86.20;;;;;;5014416;28;20278;-84
2021/12/02 04:32:23;;;;;;;;;;;5.30;86.50;;;;;;5018424;28;19924;-84
2021/12/02 04:34:48;;;;;;;;;;;5.50;86.20;;;;;;5010904;28;19910;-84
2021/12/02 04:37:14;;;;;;;;;;;5.50;85.00;;;;;;5015901;28;19932;-83
2021/12/02 04:39:39;;;;;;;;;;;5.40;85.00;;;;;;5039794;28;19923;-85
2021/12/02 04:42:05;;;;;;;;;;;5.30;86.40;;;;;;5023441;28;19960;-85
2021/12/02 04:44:30;;;;;;;;;;;5.30;86.20;;;;;;5019305;28;19987;-85
2021/12/02 04:46:56;;;;;;;;;;;5.20;85.80;;;;;;5013411;28;19987;-84
2021/12/02 04:49:21;;;;;;;;;;;5.30;86.30;;;;;;5032258;28;19932;-84
2021/12/02 04:51:47;;;;;;;;;;;5.20;86.40;;;;;;5015491;28;19917;-83
2021/12/02 04:54:12;;;;;;;;;;;5.20;86.80;;;;;;5015963;28;19924;-84
2021/12/02 04:56:38;;;;;;;;;;;5.10;86.90;;;;;;5041360;28;19916;-82
2021/12/02 04:59:04;;;;;;;;;;;5.20;87.00;;;;;;5020545;28;20274;-83
2021/12/02 05:01:29;;;;;;;;;;;5.10;86.40;;;;;;5012655;28;20491;-84
2021/12/02 05:03:54;;;;;;;;;;;5.10;86.20;;;;;;5038239;28;20009;-84
2021/12/02 05:06:20;;;;;;;;;;;5.00;86.20;;;;;;5028213;28;19978;-85
2021/12/02 05:08:45;;;;;;;;;;;5.00;87.30;;;;;;5038994;28;19917;-83
2021/12/02 05:11:11;;;;;;;;;;;5.00;87.50;;;;;;5052093;28;19913;-82
2021/12/02 05:13:36;;;;;;;;;;;5.00;87.10;;;;;;5045576;28;19909;-83
2021/12/02 05:16:02;;;;;;;;;;;5.10;87.40;;;;;;5016891;28;19936;-84
2021/12/02 05:18:28;;;;;;;;;;;5.10;86.40;;;;;;5019292;28;20008;-85
2021/12/02 05:20:53;;;;;;;;;;;5.10;87.10;;;;;;5022534;28;19923;-85
2021/12/02 05:23:19;;;;;;;;;;;5.10;86.10;;;;;;5019143;28;19916;-85
2021/12/02 05:25:45;;;;;;;;;;;5.10;86.60;;;;;;5019238;28;19917;-84
2021/12/02 05:28:11;;;;;;;;;;;5.10;86.80;;;;;;5018033;28;20281;-84
2021/12/02 05:30:36;;;;;;;;;;;5.10;85.70;;;;;;5019494;28;19920;-84
2021/12/02 05:33:02;;;;;;;;;;;5.00;86.00;;;;;;5020126;28;19913;-83
2021/12/02 05:35:28;;;;;;;;;;;4.90;86.30;;;;;;5018443;28;20016;-86
2021/12/02 05:37:53;;;;;;;;;;;4.90;86.90;;;;;;5018829;28;19909;-84
2021/12/02 05:40:19;;;;;;;;;;;4.80;86.80;;;;;;5038178;28;19924;-83
2021/12/02 05:42:44;;;;;;;;;;;4.80;87.00;;;;;;5019769;28;19921;-83
2021/12/02 05:45:10;;;;;;;;;;;4.80;87.30;;;;;;5036643;28;19920;-83
2021/12/02 05:47:35;;;;;;;;;;;4.80;86.60;;;;;;5018943;28;19919;-81
2021/12/02 05:50:02;;;;;;;;;;;4.70;86.80;;;;;;5020454;28;19909;-81
2021/12/02 05:52:27;;;;;;;;;;;4.70;87.20;;;;;;5027855;28;19917;-84
2021/12/02 05:54:53;;;;;;;;;;;4.70;86.80;;;;;;5015339;28;20328;-84
2021/12/02 05:57:18;;;;;;;;;;;4.60;87.10;;;;;;5035220;28;19909;-83
2021/12/02 05:59:45;;;;;;;;;;;4.70;86.90;;;;;;5041547;28;19916;-83
2021/12/02 06:02:10;;;;;;;;;;;4.70;86.40;;;;;;5029264;28;20293;-82
2021/12/02 06:04:38;;;;;;;;;;;4.70;86.60;;;;;;5039554;28;19913;-85
2021/12/02 06:07:04;;;;;;;;;;;4.70;87.00;;;;;;5020344;28;19909;-84
2021/12/02 06:09:30;;;;;;;;;;;4.70;86.70;;;;;;5051598;28;20029;-86
2021/12/02 06:11:55;;;;;;;;;;;4.60;85.70;;;;;;5029723;28;19920;-83
2021/12/02 06:14:21;;;;;;;;;;;4.60;86.20;;;;;;5049723;28;19913;-85
2021/12/02 06:16:46;;;;;;;;;;;4.60;87.10;;;;;;5049070;28;19925;-82
2021/12/02 06:19:12;;;;;;;;;;;4.50;86.40;;;;;;5014465;28;20432;-85
2021/12/02 06:21:37;;;;;;;;;;;4.50;86.50;;;;;;5043063;28;19956;-81
2021/12/02 06:24:09;;;;;;;;;;;4.60;86.80;;;;;;5016182;28;19983;-81
2021/12/02 06:26:34;;;;;;;;;;;4.60;86.70;;;;;;5020005;28;20388;-81
2021/12/02 06:29:00;;;;;;;;;;;4.60;86.90;;;;;;5049686;28;19928;-83
2021/12/02 06:31:25;;;;;;;;;;;4.60;86.70;;;;;;5025738;28;19921;-84
2021/12/02 06:33:51;;;;;;;;;;;4.60;86.60;;;;;;5029918;28;19940;-83
2021/12/02 06:36:16;;;;;;;;;;;4.60;86.30;;;;;;5038395;28;19913;-85
2021/12/02 06:38:42;;;;;;;;;;;4.70;86.10;;;;;;5056297;28;20238;-84
2021/12/02 06:41:08;;;;;;;;;;;4.60;85.90;;;;;;5060210;28;20334;-87
2021/12/02 06:43:33;;;;;;;;;;;4.70;85.90;;;;;;5043219;28;19909;-87
2021/12/02 06:45:59;;;;;;;;;;;4.70;85.80;;;;;;5044233;28;19921;-83
2021/12/02 06:48:25;;;;;;;;;;;4.60;86.00;;;;;;5057123;28;19917;-85
2021/12/02 06:50:51;;;;;;;;;;;4.60;85.80;;;;;;5052476;28;19913;-87
2021/12/02 06:53:17;;;;;;;;;;;4.60;85.20;;;;;;5026996;28;20377;-87
2021/12/02 06:55:43;;;;;;;;;;;4.60;85.40;;;;;;5028051;28;19917;-86
2021/12/02 06:58:09;;;;;;;;;;;4.60;86.00;;;;;;5050279;28;19920;-88
2021/12/02 07:00:34;;;;;;;;;;;4.60;85.60;;;;;;5034815;28;19913;-86
2021/12/02 07:03:01;;;;;;;;;;;4.60;85.70;;;;;;5064143;28;19909;-86
2021/12/02 07:05:29;;;;;;;;;;;4.60;85.60;;;;;;5025920;28;19925;-87
2021/12/02 07:07:55;;;;;;;;;;;4.70;85.50;;;;;;5022118;28;19917;-87
2021/12/02 07:10:24;;;;;;;;;;;4.60;85.90;;;;;;5055979;28;19924;-88
2021/12/02 07:12:52;;;;;;;;;;;4.60;86.10;;;;;;5024130;28;19935;-87
2021/12/02 07:15:25;;;;;;;;;;;4.70;85.70;;;;;;5054400;28;19979;-88
2021/12/02 07:17:55;;;;;;;;;;;4.60;85.00;;;;;;5028353;28;19944;-87
2021/12/02 07:20:20;;;;;;;;;;;4.60;85.70;;;;;;5025014;28;19972;-88
2021/12/02 07:22:46;;;;;;;;;;;4.60;85.80;;;;;;5029000;28;19925;-87
2021/12/02 07:25:12;;;;;;;;;;;4.60;86.00;;;;;;5031536;28;20012;-87
2021/12/02 07:27:37;;;;;;;;;;;4.60;86.50;;;;;;5065486;28;20005;-87
2021/12/02 07:30:06;;;;;;;;;;;4.60;86.10;;;;;;5065670;28;20008;-88
2021/12/02 07:32:36;;;;;;;;;;;4.60;86.10;;;;;;5050475;28;19924;-88
2021/12/02 07:35:04;;;;;;;;;;;4.60;86.40;;;;;;5051411;28;19916;-87
2021/12/02 07:37:29;;;;;;;;;;;4.60;86.50;;;;;;5032457;28;20559;-87
2021/12/02 07:39:55;;;;;;;;;;;4.60;86.30;;;;;;5053164;28;19927;-87
2021/12/02 07:42:21;;;;;;;;;;;4.60;86.70;;;;;;5032816;28;19917;-87
2021/12/02 07:44:46;;;;;;;;;;;4.60;86.60;;;;;;5031247;28;19939;-88
2021/12/02 07:47:12;;;;;;;;;;;4.60;86.40;;;;;;5030791;28;19940;-86
2021/12/02 07:49:38;;;;;;;;;;;4.60;86.80;;;;;;5064739;28;19935;-87
2021/12/02 07:52:04;;;;;;;;;;;4.60;86.60;;;;;;5056096;28;19968;-87
2021/12/02 07:54:33;;;;;;;;;;;4.60;86.80;;;;;;5044350;28;19967;-87
2021/12/02 07:57:00;;;;;;;;;;;4.60;87.00;;;;;;5029314;28;20226;-87
2021/12/02 07:59:26;;;;;;;;;;;4.60;87.10;;;;;;5022278;28;19956;-87
2021/12/02 08:01:55;;;;;;;;;;;4.60;86.90;;;;;;5024830;28;19944;-86
2021/12/02 08:04:21;;;;;;;;;;;4.50;86.80;;;;;;5020109;28;19920;-87
2021/12/02 08:06:46;;;;;;;;;;;4.50;86.80;;;;;;5017735;28;19913;-87
2021/12/02 08:09:14;;;;;;;;;;;4.40;86.20;;;;;;5032332;28;19962;-87
2021/12/02 08:11:40;;;;;;;;;;;4.30;87.20;;;;;;5049751;28;19913;-86
2021/12/02 08:14:12;;;;;;;;;;;4.40;87.60;;;;;;5052670;28;19909;-87
2021/12/02 08:16:37;;;;;;;;;;;4.40;87.60;;;;;;5036951;28;19928;-87
2021/12/02 08:19:03;;;;;;;;;;;4.50;87.10;;;;;;5053022;28;20253;-88
2021/12/02 08:21:28;;;;;;;;;;;4.60;87.20;;;;;;5050384;28;19913;-87
2021/12/02 08:23:54;;;;;;;;;;;4.60;86.60;;;;;;5020722;28;19917;-87
2021/12/02 08:26:19;;;;;;;;;;;4.50;86.40;;;;;;5038040;28;19928;-87
2021/12/02 08:28:45;;;;;;;;;;;4.50;86.90;;;;;;5037317;28;19913;-87
2021/12/02 08:31:10;;;;;;;;;;;4.50;86.00;;;;;;5022495;28;19913;-87
2021/12/02 08:33:36;;;;;;;;;;;4.50;85.40;;;;;;5042111;28;20419;-87
2021/12/02 08:36:02;;;;;;;;;;;4.40;85.30;;;;;;5056461;28;19914;-86
2021/12/02 08:38:32;;;;;;;;;;;4.40;85.30;;;;;;5023028;28;20399;-87
2021/12/02 08:40:58;;;;;;;;;;;4.20;84.40;;;;;;5024737;28;19917;-88
2021/12/02 08:43:24;;;;;;;;;;;4.20;84.60;;;;;;5042258;28;19913;-86
2021/12/02 08:45:50;;;;;;;;;;;4.20;84.80;;;;;;5024777;28;19976;-87
2021/12/02 08:48:15;;;;;;;;;;;4.30;85.70;;;;;;5025378;28;19925;-87
2021/12/02 08:50:41;;;;;;;;;;;4.30;85.60;;;;;;5042155;28;20293;-87
2021/12/02 08:53:08;;;;;;;;;;;4.20;84.90;;;;;;5041553;28;19913;-87
2021/12/02 08:55:33;;;;;;;;;;;4.30;85.10;;;;;;5023056;28;19920;-88
2021/12/02 08:58:00;;;;;;;;;;;4.30;85.50;;;;;;5022153;28;20343;-87
2021/12/02 09:00:27;;;;;;;;;;;4.30;86.30;;;;;;5041684;28;19936;-84
2021/12/02 09:02:53;;;;;;;;;;;4.30;85.80;;;;;;5023210;28;19913;-87
2021/12/02 09:05:19;;;;;;;;;;;4.30;85.60;;;;;;5041897;28;19917;-87
2021/12/02 09:07:45;;;;;;;;;;;4.40;85.70;;;;;;5040988;28;19909;-87
2021/12/02 09:10:10;;;;;;;;;;;4.30;84.90;;;;;;5023562;28;19999;-87
2021/12/02 09:12:36;;;;;;;;;;;4.30;85.70;;;;;;5023563;28;19913;-87
2021/12/02 09:15:02;;;;;;;;;;;4.40;85.80;;;;;;5025133;28;19913;-87
2021/12/02 09:17:28;;;;;;;;;;;4.50;85.80;;;;;;5042706;28;20685;-88
2021/12/02 09:19:53;;;;;;;;;;;4.50;85.60;;;;;;5026687;28;19983;-88
2021/12/02 09:22:19;;;;;;;;;;;4.70;85.40;;;;;;5061642;28;19928;-87
2021/12/02 09:24:44;;;;;;;;;;;4.60;85.10;;;;;;5029349;28;19929;-87
2021/12/02 09:27:10;;;;;;;;;;;4.60;84.50;;;;;;5056808;28;20034;-87
2021/12/02 09:29:36;;;;;;;;;;;4.50;84.80;;;;;;5059256;28;19963;-88
2021/12/02 09:32:03;;;;;;;;;;;4.50;85.60;;;;;;5023814;28;19920;-87
2021/12/02 09:34:29;;;;;;;;;;;4.60;84.70;;;;;;5025121;28;19914;-87
2021/12/02 09:36:56;;;;;;;;;;;4.60;84.60;;;;;;5056800;28;19959;-87
2021/12/02 09:39:22;;;;;;;;;;;4.60;84.90;;;;;;5056511;28;19909;-87
2021/12/02 09:41:47;;;;;;;;;;;4.70;84.20;;;;;;5016796;28;19916;-86
2021/12/02 09:44:14;;;;;;;;;;;4.90;83.90;;;;;;5017534;28;19959;-86
2021/12/02 09:46:40;;;;;;;;;;;4.90;82.80;;;;;;5021728;28;19917;-86
2021/12/02 09:49:07;;;;;;;;;;;4.90;83.20;;;;;;5019980;28;19984;-85
2021/12/02 09:51:45;;;;;;;;;;;4.90;83.10;;;;;;5026397;28;19925;-86
2021/12/02 09:54:15;;;;;;;;;;;5.00;83.50;;;;;;5022127;28;19916;-87
2021/12/02 09:56:43;;;;;;;;;;;4.90;83.20;;;;;;5021832;28;19925;-86
2021/12/02 09:59:12;;;;;;;;;;;5.00;83.10;;;;;;5021472;28;20012;-87
2021/12/02 10:01:42;;;;;;;;;;;4.90;82.60;;;;;;5054604;28;19909;-86
2021/12/02 10:04:10;;;;;;;;;;;4.90;82.80;;;;;;5020906;28;19976;-86
2021/12/02 10:06:35;;;;;;;;;;;4.90;82.80;;;;;;5055084;28;19923;-88
2021/12/02 10:09:11;;;;;;;;;;;4.80;82.50;;;;;;5039913;28;19999;-87
2021/12/02 10:11:49;;;;;;;;;;;4.70;82.40;;;;;;5021612;28;19928;-87
2021/12/02 10:14:20;;;;;;;;;;;4.80;82.10;;;;;;5040746;28;19913;-87
2021/12/02 10:16:47;;;;;;;;;;;4.90;81.80;;;;;;5055846;28;19925;-87
2021/12/02 10:19:17;;;;;;;;;;;4.90;82.00;;;;;;5021929;28;19921;-87
2021/12/02 10:21:48;;;;;;;;;;;4.80;82.00;;;;;;5023218;28;19909;-87
2021/12/02 10:24:19;;;;;;;;;;;4.80;82.30;;;;;;5059323;28;19909;-86
2021/12/02 10:26:46;;;;;;;;;;;4.80;82.90;;;;;;5025734;28;19973;-85
2021/12/02 10:29:14;;;;;;;;;;;4.90;82.70;;;;;;5025658;28;20035;-87
2021/12/02 10:31:43;;;;;;;;;;;4.70;80.90;;;;;;5031675;28;19974;-86
2021/12/02 10:34:08;;;;;;;;;;;4.60;81.70;;;;;;5052513;28;19940;-87
2021/12/02 10:36:35;;;;;;;;;;;4.60;81.40;;;;;;5051337;28;19916;-86
2021/12/02 10:39:18;;;;;;;;;;;4.60;82.00;;;;;;5049469;28;19980;-86
2021/12/02 10:41:56;;;;;;;;;;;4.60;80.80;;;;;;5045366;28;19921;-87
2021/12/02 10:44:29;;;;;;;;;;;4.60;81.40;;;;;;5051214;28;20019;-84
2021/12/02 10:46:57;;;;;;;;;;;4.70;82.40;;;;;;5032881;28;19984;-86
2021/12/02 10:49:23;;;;;;;;;;;4.60;82.10;;;;;;5032894;28;19921;-88
2021/12/02 10:51:52;;;;;;;;;;;4.60;81.90;;;;;;5065128;28;20209;-85
2021/12/02 10:54:20;;;;;;;;;;;4.60;82.30;;;;;;5032653;28;19920;-86
2021/12/02 10:56:50;;;;;;;;;;;4.80;82.20;;;;;;5030584;28;19929;-86
2021/12/02 10:59:25;;;;;;;;;;;4.80;82.30;;;;;;5032133;28;20027;-86
2021/12/02 11:01:51;;;;;;;;;;;4.70;82.10;;;;;;5032931;28;19960;-86
2021/12/02 11:04:17;;;;;;;;;;;4.70;81.90;;;;;;5031466;28;20269;-87
2021/12/02 11:06:44;;;;;;;;;;;4.70;82.30;;;;;;5035138;28;19913;-86
2021/12/02 11:09:25;;;;;;;;;;;4.60;82.40;;;;;;5030524;28;20448;-87
2021/12/02 11:12:06;;;;;;;;;;;4.70;82.30;;;;;;5051322;28;20363;-86
2021/12/02 11:14:32;;;;;;;;;;;4.80;81.80;;;;;;5043216;28;19917;-85
2021/12/02 11:17:16;;;;;;;;;;;4.80;81.60;;;;;;5019747;28;19928;-86
2021/12/02 11:19:45;;;;;;;;;;;4.60;81.20;;;;;;5035287;28;19913;-86
2021/12/02 11:22:12;;;;;;;;;;;4.70;80.70;;;;;;5032590;28;19993;-87
2021/12/02 11:24:39;;;;;;;;;;;4.80;80.50;;;;;;5031926;28;19969;-85
2021/12/02 11:27:08;;;;;;;;;;;4.80;80.40;;;;;;5039378;28;20300;-86
2021/12/02 11:29:46;;;;;;;;;;;4.90;80.00;;;;;;5022683;28;20458;-85
2021/12/02 11:32:25;;;;;;;;;;;4.90;80.30;;;;;;5054028;28;19921;-85
2021/12/02 11:34:58;;;;;;;;;;;4.90;80.50;;;;;;5063124;28;19921;-85
2021/12/02 11:37:25;;;;;;;;;;;4.90;80.40;;;;;;5055821;28;20291;-87
2021/12/02 11:39:50;;;;;;;;;;;4.90;80.70;;;;;;5054576;28;19909;-86
2021/12/02 11:42:16;;;;;;;;;;;4.80;79.80;;;;;;5035581;28;19921;-84
2021/12/02 11:44:42;;;;;;;;;;;4.80;79.40;;;;;;5016734;28;19913;-86
2021/12/02 11:47:07;;;;;;;;;;;4.80;80.80;;;;;;5035663;28;19915;-85
2021/12/02 11:49:34;;;;;;;;;;;4.80;81.20;;;;;;5035517;28;19919;-84
2021/12/02 11:52:00;;;;;;;;;;;4.80;81.10;;;;;;5018129;28;20384;-85
2021/12/02 11:54:25;;;;;;;;;;;4.80;80.80;;;;;;5018561;28;19917;-86
2021/12/02 11:56:51;;;;;;;;;;;4.90;80.50;;;;;;5019668;28;19920;-86
2021/12/02 11:59:17;;;;;;;;;;;4.80;81.20;;;;;;5036569;28;19909;-86
2021/12/02 12:01:43;;;;;;;;;;;5.00;81.60;;;;;;5017116;28;19917;-86
2021/12/02 12:04:10;;;;;;;;;;;5.00;81.50;;;;;;5032687;28;19921;-84
2021/12/02 12:06:38;;;;;;;;;;;5.00;80.30;;;;;;5034574;28;19967;-84
2021/12/02 12:09:13;;;;;;;;;;;5.10;80.90;;;;;;5021754;28;19913;-85
2021/12/02 12:11:44;;;;;;;;;;;5.10;79.60;;;;;;5045240;28;19913;-86
2021/12/02 12:14:10;;;;;;;;;;;5.10;79.80;;;;;;5040331;28;20237;-84
2021/12/02 12:16:42;;;;;;;;;;;5.20;80.30;;;;;;5019254;28;19939;-85
2021/12/02 12:19:20;;;;;;;;;;;5.10;80.70;;;;;;5033973;28;19914;-86
2021/12/02 12:21:54;;;;;;;;;;;5.10;80.80;;;;;;5031913;28;19913;-87
2021/12/02 12:24:37;;;;;;;;;;;5.10;80.50;;;;;;5022997;28;20004;-86
2021/12/02 12:27:09;;;;;;;;;;;5.20;81.10;;;;;;5024669;28;19920;-85
2021/12/02 12:29:35;;;;;;;;;;;5.30;80.10;;;;;;5064692;28;19913;-84
2021/12/02 12:32:05;;;;;;;;;;;5.40;80.10;;;;;;5025047;28;20452;-84
2021/12/02 12:34:33;;;;;;;;;;;5.50;79.90;;;;;;5049495;28;19919;-85
2021/12/02 12:36:59;;;;;;;;;;;5.50;79.80;;;;;;5024441;28;19936;-85
2021/12/02 12:39:28;;;;;;;;;;;5.50;80.10;;;;;;5023409;28;19921;-84
2021/12/02 12:42:15;;;;;;;;;;;5.50;79.20;;;;;;5019272;28;20020;-83
2021/12/02 12:44:47;;;;;;;;;;;5.50;79.80;;;;;;5028399;28;20008;-84
2021/12/02 12:47:13;;;;;;;;;;;5.20;79.20;;;;;;5057099;28;20005;-85
2021/12/02 12:49:39;;;;;;;;;;;5.00;81.30;;;;;;5031339;28;19981;-85
2021/12/02 12:52:14;;;;;;;;;;;4.90;81.50;;;;;;5066844;28;19917;-85
2021/12/02 12:54:40;;;;;;;;;;;4.70;82.70;;;;;;5030369;28;19959;-83
2021/12/02 12:57:07;;;;;;;;;;;4.40;83.60;;;;;;5031369;28;19924;-84
2021/12/02 12:59:46;;;;;;;;;;;4.30;84.30;;;;;;5037207;28;19917;-84
2021/12/02 13:02:13;;;;;;;;;;;4.40;84.50;;;;;;5069126;28;19912;-84
2021/12/02 13:04:52;;;;;;;;;;;4.30;85.10;;;;;;5041783;28;19944;-84
2021/12/02 13:07:18;;;;;;;;;;;4.20;85.30;;;;;;5066965;28;19923;-85
2021/12/02 13:09:58;;;;;;;;;;;4.30;85.10;;;;;;5069461;28;19927;-84
2021/12/02 13:12:28;;;;;;;;;;;4.30;85.30;;;;;;5036918;28;19924;-84
2021/12/02 13:14:54;;;;;;;;;;;4.30;85.30;;;;;;5055930;28;19917;-84
2021/12/02 13:17:34;;;;;;;;;;;4.30;85.90;;;;;;5035389;28;19906;-86
2021/12/02 13:19:59;;;;;;;;;;;4.30;85.60;;;;;;5051839;28;19956;-88
2021/12/02 13:22:25;;;;;;;;;;;4.50;85.50;;;;;;5022132;28;19921;-85
2021/12/02 13:24:50;;;;;;;;;;;4.60;85.20;;;;;;5021344;28;19928;-85
2021/12/02 13:27:20;;;;;;;;;;;4.60;84.70;;;;;;5041704;28;19976;-83
2021/12/02 13:29:46;;;;;;;;;;;4.60;84.70;;;;;;5050577;28;20034;-84
2021/12/02 13:32:11;;;;;;;;;;;4.70;84.90;;;;;;5040432;28;20020;-84
2021/12/02 13:34:37;;;;;;;;;;;4.60;84.20;;;;;;5035240;28;19909;-85
2021/12/02 13:37:07;;;;;;;;;;;4.60;84.40;;;;;;5045366;28;19924;-82
2021/12/02 13:39:37;;;;;;;;;;;4.60;84.40;;;;;;5058065;28;19921;-83
2021/12/02 13:42:06;;;;;;;;;;;4.60;83.20;;;;;;5029398;28;19913;-84
2021/12/02 13:44:33;;;;;;;;;;;4.60;83.40;;;;;;5022616;28;19909;-83
2021/12/02 13:47:02;;;;;;;;;;;4.60;83.30;;;;;;5019435;28;20282;-84
2021/12/02 13:49:34;;;;;;;;;;;4.60;82.10;;;;;;5034861;28;19913;-84
2021/12/02 13:54:53;;;;;;;;;;;4.50;83.10;;;;;;5037375;28;19982;-85
2021/12/02 13:57:42;;;;;;;;;;;4.60;83.90;;;;;;5025608;28;19941;-84
2021/12/02 14:00:11;;;;;;;;;;;4.60;83.90;;;;;;5037719;28;19996;-84
2021/12/02 14:02:38;;;;;;;;;;;4.50;83.70;;;;;;5017428;28;19913;-83
2021/12/02 14:05:08;;;;;;;;;;;4.50;83.90;;;;;;5019546;28;20070;-83
2021/12/02 14:07:34;;;;;;;;;;;4.60;83.70;;;;;;5019480;28;19913;-83
2021/12/02 14:09:59;;;;;;;;;;;4.50;83.40;;;;;;5021970;28;19953;-84
2021/12/02 14:12:44;;;;;;;;;;;4.60;83.50;;;;;;5039401;28;19952;-84
2021/12/02 14:15:17;;;;;;;;;;;4.60;83.90;;;;;;5056601;28;20389;-83
2021/12/02 14:17:48;;;;;;;;;;;4.60;83.90;;;;;;5022802;28;19917;-83
2021/12/02 14:20:13;;;;;;;;;;;4.70;84.80;;;;;;5038338;28;20004;-83
2021/12/02 14:22:41;;;;;;;;;;;4.80;83.90;;;;;;5015890;28;20015;-85
2021/12/02 14:25:08;;;;;;;;;;;4.70;84.10;;;;;;5016315;28;19909;-83
2021/12/02 14:27:34;;;;;;;;;;;4.70;84.60;;;;;;5032982;28;19909;-83
2021/12/02 14:30:05;;;;;;;;;;;4.70;84.20;;;;;;5014719;28;19915;-83
2021/12/02 14:32:31;;;;;;;;;;;4.80;84.50;;;;;;5032482;28;19940;-83
2021/12/02 14:35:10;;;;;;;;;;;4.80;84.70;;;;;;5011295;28;19909;-83
2021/12/02 14:37:36;;;;;;;;;;;4.90;84.20;;;;;;5027974;28;19925;-83
2021/12/02 14:40:01;;;;;;;;;;;4.80;84.30;;;;;;5015741;28;19916;-83
2021/12/02 14:42:27;;;;;;;;;;;4.80;84.40;;;;;;5014882;28;19917;-83
2021/12/02 14:44:52;;;;;;;;;;;4.80;84.30;;;;;;5015583;28;19920;-83
2021/12/02 14:47:17;;;;;;;;;;;4.90;84.80;;;;;;5015111;28;19909;-83
2021/12/02 14:49:46;;;;;;;;;;;4.90;83.60;;;;;;5014687;28;19913;-82
2021/12/02 14:52:16;;;;;;;;;;;4.90;83.60;;;;;;5042993;28;19924;-83